sensor_id;sensor_type;location;lat;lon;timestamp;temperature;humidity
5901;DHT22;2976;49.764;9.796;2023-06-04T00:02:13;12.80;66.60
5901;DHT22;2976;49.764;9.796;2023-06-04T00:04:38;12.70;67.50
5901;DHT22;2976;49.764;9.796;2023-06-04T00:07:04;12.70;67.70
5901;DHT22;2976;49.764;9.796;2023-06-04T00:09:30;12.70;67.60
5901;DHT22;2976;49.764;9.796;2023-06-04T00:11:56;12.60;67.50
5901;DHT22;2976;49.764;9.796;2023-06-04T00:14:22;12.60;68.50
5901;DHT22;2976;49.764;9.796;2023-06-04T00:16:47;12.50;69.00
5901;DHT22;2976;49.764;9.796;2023-06-04T00:19:13;12.40;70.30
5901;DHT22;2976;49.764;9.796;2023-06-04T00:21:39;12.30;70.40
5901;DHT22;2976;49.764;9.796;2023-06-04T00:24:05;12.20;71.30
5901;DHT22;2976;49.764;9.796;2023-06-04T00:26:31;12.10;71.30
5901;DHT22;2976;49.764;9.796;2023-06-04T00:28:56;12.00;72.10
5901;DHT22;2976;49.764;9.796;2023-06-04T00:31:22;12.00;71.60
5901;DHT22;2976;49.764;9.796;2023-06-04T00:33:48;11.90;71.80
5901;DHT22;2976;49.764;9.796;2023-06-04T00:36:14;11.90;72.30
5901;DHT22;2976;49.764;9.796;2023-06-04T00:38:39;11.80;73.00
5901;DHT22;2976;49.764;9.796;2023-06-04T00:41:05;11.80;71.60
5901;DHT22;2976;49.764;9.796;2023-06-04T00:43:30;11.80;72.40
5901;DHT22;2976;49.764;9.796;2023-06-04T00:45:58;11.80;72.40
5901;DHT22;2976;49.764;9.796;2023-06-04T00:48:24;11.80;72.50
5901;DHT22;2976;49.764;9.796;2023-06-04T00:50:50;11.70;72.70
5901;DHT22;2976;49.764;9.796;2023-06-04T00:53:16;11.70;73.00
5901;DHT22;2976;49.764;9.796;2023-06-04T00:55:42;11.60;73.40
5901;DHT22;2976;49.764;9.796;2023-06-04T00:58:08;11.60;73.60
5901;DHT22;2976;49.764;9.796;2023-06-04T01:00:35;11.60;74.00
5901;DHT22;2976;49.764;9.796;2023-06-04T01:03:04;11.50;73.90
5901;DHT22;2976;49.764;9.796;2023-06-04T01:05:47;11.50;73.90
5901;DHT22;2976;49.764;9.796;2023-06-04T01:08:13;11.50;74.60
5901;DHT22;2976;49.764;9.796;2023-06-04T01:10:53;11.40;74.90
5901;DHT22;2976;49.764;9.796;2023-06-04T01:13:20;11.40;75.10
5901;DHT22;2976;49.764;9.796;2023-06-04T01:15:45;11.30;74.90
5901;DHT22;2976;49.764;9.796;2023-06-04T01:18:15;11.30;76.10
5901;DHT22;2976;49.764;9.796;2023-06-04T01:20:59;11.20;75.70
5901;DHT22;2976;49.764;9.796;2023-06-04T01:26:11;11.30;75.00
5901;DHT22;2976;49.764;9.796;2023-06-04T01:28:37;11.20;75.40
5901;DHT22;2976;49.764;9.796;2023-06-04T01:31:04;11.20;75.00
5901;DHT22;2976;49.764;9.796;2023-06-04T01:33:33;11.20;75.50
5901;DHT22;2976;49.764;9.796;2023-06-04T01:35:58;11.10;75.90
5901;DHT22;2976;49.764;9.796;2023-06-04T01:38:25;11.00;76.30
5901;DHT22;2976;49.764;9.796;2023-06-04T01:40:51;10.90;78.00
5901;DHT22;2976;49.764;9.796;2023-06-04T01:43:21;10.80;79.10
5901;DHT22;2976;49.764;9.796;2023-06-04T01:45:47;10.70;78.50
5901;DHT22;2976;49.764;9.796;2023-06-04T01:48:13;10.70;79.30
5901;DHT22;2976;49.764;9.796;2023-06-04T01:50:39;10.70;79.30
5901;DHT22;2976;49.764;9.796;2023-06-04T01:53:05;10.70;79.20
5901;DHT22;2976;49.764;9.796;2023-06-04T01:55:31;10.80;78.60
5901;DHT22;2976;49.764;9.796;2023-06-04T01:57:59;10.80;78.50
5901;DHT22;2976;49.764;9.796;2023-06-04T02:00:25;10.70;79.50
5901;DHT22;2976;49.764;9.796;2023-06-04T02:02:50;10.60;80.50
5901;DHT22;2976;49.764;9.796;2023-06-04T02:05:17;10.50;81.00
5901;DHT22;2976;49.764;9.796;2023-06-04T02:07:45;10.40;82.00
5901;DHT22;2976;49.764;9.796;2023-06-04T02:10:12;10.30;83.70
5901;DHT22;2976;49.764;9.796;2023-06-04T02:12:39;10.20;84.70
5901;DHT22;2976;49.764;9.796;2023-06-04T02:15:06;10.20;85.20
5901;DHT22;2976;49.764;9.796;2023-06-04T02:17:32;10.10;85.60
5901;DHT22;2976;49.764;9.796;2023-06-04T02:19:59;10.00;86.60
5901;DHT22;2976;49.764;9.796;2023-06-04T02:22:25;10.10;86.50
5901;DHT22;2976;49.764;9.796;2023-06-04T02:24:51;10.00;86.80
5901;DHT22;2976;49.764;9.796;2023-06-04T02:27:17;9.90;88.70
5901;DHT22;2976;49.764;9.796;2023-06-04T02:29:43;9.90;89.40
5901;DHT22;2976;49.764;9.796;2023-06-04T02:32:08;9.80;90.00
5901;DHT22;2976;49.764;9.796;2023-06-04T02:34:34;9.80;90.50
5901;DHT22;2976;49.764;9.796;2023-06-04T02:37:01;9.80;90.50
5901;DHT22;2976;49.764;9.796;2023-06-04T02:39:26;9.80;90.50
5901;DHT22;2976;49.764;9.796;2023-06-04T02:41:52;9.70;90.90
5901;DHT22;2976;49.764;9.796;2023-06-04T02:44:17;9.70;90.60
5901;DHT22;2976;49.764;9.796;2023-06-04T02:46:44;9.80;90.00
5901;DHT22;2976;49.764;9.796;2023-06-04T02:49:10;9.80;90.10
5901;DHT22;2976;49.764;9.796;2023-06-04T02:51:39;9.80;89.30
5901;DHT22;2976;49.764;9.796;2023-06-04T02:54:05;9.90;88.40
5901;DHT22;2976;49.764;9.796;2023-06-04T02:56:31;10.00;87.50
5901;DHT22;2976;49.764;9.796;2023-06-04T02:58:56;10.00;87.30
5901;DHT22;2976;49.764;9.796;2023-06-04T03:01:23;9.90;89.00
5901;DHT22;2976;49.764;9.796;2023-06-04T03:03:49;9.90;88.80
5901;DHT22;2976;49.764;9.796;2023-06-04T03:06:17;9.90;89.00
5901;DHT22;2976;49.764;9.796;2023-06-04T03:08:42;9.80;90.10
5901;DHT22;2976;49.764;9.796;2023-06-04T03:11:08;9.80;90.20
5901;DHT22;2976;49.764;9.796;2023-06-04T03:13:35;9.80;90.10
5901;DHT22;2976;49.764;9.796;2023-06-04T03:16:01;9.70;90.40
5901;DHT22;2976;49.764;9.796;2023-06-04T03:18:27;9.70;90.80
5901;DHT22;2976;49.764;9.796;2023-06-04T03:20:54;9.60;91.00
5901;DHT22;2976;49.764;9.796;2023-06-04T03:23:20;9.50;91.50
5901;DHT22;2976;49.764;9.796;2023-06-04T03:25:46;9.40;92.60
5901;DHT22;2976;49.764;9.796;2023-06-04T03:28:11;9.30;93.00
5901;DHT22;2976;49.764;9.796;2023-06-04T03:30:37;9.20;94.00
5901;DHT22;2976;49.764;9.796;2023-06-04T03:33:03;9.20;95.10
5901;DHT22;2976;49.764;9.796;2023-06-04T03:35:28;9.10;96.20
5901;DHT22;2976;49.764;9.796;2023-06-04T03:37:54;9.10;96.20
5901;DHT22;2976;49.764;9.796;2023-06-04T03:40:20;9.20;97.30
5901;DHT22;2976;49.764;9.796;2023-06-04T03:42:45;9.10;97.80
5901;DHT22;2976;49.764;9.796;2023-06-04T03:45:11;9.10;98.40
5901;DHT22;2976;49.764;9.796;2023-06-04T03:47:38;9.00;99.10
5901;DHT22;2976;49.764;9.796;2023-06-04T03:50:04;9.00;99.90
5901;DHT22;2976;49.764;9.796;2023-06-04T03:52:30;8.90;99.90
5901;DHT22;2976;49.764;9.796;2023-06-04T03:54:56;8.90;99.90
5901;DHT22;2976;49.764;9.796;2023-06-04T03:57:22;8.90;99.90
5901;DHT22;2976;49.764;9.796;2023-06-04T03:59:48;8.90;99.90
5901;DHT22;2976;49.764;9.796;2023-06-04T04:02:13;8.80;99.90
5901;DHT22;2976;49.764;9.796;2023-06-04T04:04:40;8.80;99.90
5901;DHT22;2976;49.764;9.796;2023-06-04T04:07:05;8.80;99.90
5901;DHT22;2976;49.764;9.796;2023-06-04T04:09:31;8.80;99.90
5901;DHT22;2976;49.764;9.796;2023-06-04T04:11:56;8.90;99.90
5901;DHT22;2976;49.764;9.796;2023-06-04T04:14:22;8.90;99.90
5901;DHT22;2976;49.764;9.796;2023-06-04T04:16:47;9.00;99.90
5901;DHT22;2976;49.764;9.796;2023-06-04T04:19:13;9.40;99.90
5901;DHT22;2976;49.764;9.796;2023-06-04T04:21:39;9.90;99.90
5901;DHT22;2976;49.764;9.796;2023-06-04T04:24:05;10.20;99.60
5901;DHT22;2976;49.764;9.796;2023-06-04T04:26:30;10.70;99.60
5901;DHT22;2976;49.764;9.796;2023-06-04T04:28:56;11.60;97.50
5901;DHT22;2976;49.764;9.796;2023-06-04T04:31:32;12.70;90.30
5901;DHT22;2976;49.764;9.796;2023-06-04T04:34:01;13.80;87.00
5901;DHT22;2976;49.764;9.796;2023-06-04T04:36:34;14.90;82.10
5901;DHT22;2976;49.764;9.796;2023-06-04T04:39:01;15.70;78.30
5901;DHT22;2976;49.764;9.796;2023-06-04T04:41:27;16.70;75.20
5901;DHT22;2976;49.764;9.796;2023-06-04T04:43:52;17.00;72.50
5901;DHT22;2976;49.764;9.796;2023-06-04T04:46:18;17.70;71.20
5901;DHT22;2976;49.764;9.796;2023-06-04T04:48:44;18.50;69.50
5901;DHT22;2976;49.764;9.796;2023-06-04T04:51:09;19.00;67.50
5901;DHT22;2976;49.764;9.796;2023-06-04T04:53:35;19.50;65.30
5901;DHT22;2976;49.764;9.796;2023-06-04T04:56:00;20.10;64.60
5901;DHT22;2976;49.764;9.796;2023-06-04T04:58:26;20.70;63.70
5901;DHT22;2976;49.764;9.796;2023-06-04T05:00:51;21.10;61.90
5901;DHT22;2976;49.764;9.796;2023-06-04T05:03:17;21.10;58.20
5901;DHT22;2976;49.764;9.796;2023-06-04T05:05:42;21.30;57.20
5901;DHT22;2976;49.764;9.796;2023-06-04T05:08:09;20.40;56.10
5901;DHT22;2976;49.764;9.796;2023-06-04T05:10:34;20.80;57.10
5901;DHT22;2976;49.764;9.796;2023-06-04T05:13:01;21.00;53.80
5901;DHT22;2976;49.764;9.796;2023-06-04T05:15:27;20.80;53.50
5901;DHT22;2976;49.764;9.796;2023-06-04T05:17:53;20.70;54.00
5901;DHT22;2976;49.764;9.796;2023-06-04T05:20:19;21.00;53.20
5901;DHT22;2976;49.764;9.796;2023-06-04T05:22:46;21.00;53.90
5901;DHT22;2976;49.764;9.796;2023-06-04T05:25:12;21.80;54.60
5901;DHT22;2976;49.764;9.796;2023-06-04T05:27:39;21.70;53.90
5901;DHT22;2976;49.764;9.796;2023-06-04T05:30:06;22.00;51.80
5901;DHT22;2976;49.764;9.796;2023-06-04T05:32:32;21.60;52.60
5901;DHT22;2976;49.764;9.796;2023-06-04T05:34:58;21.70;52.70
5901;DHT22;2976;49.764;9.796;2023-06-04T05:37:27;21.50;51.80
5901;DHT22;2976;49.764;9.796;2023-06-04T05:39:55;21.20;53.40
5901;DHT22;2976;49.764;9.796;2023-06-04T05:42:20;20.60;52.10
5901;DHT22;2976;49.764;9.796;2023-06-04T05:44:46;20.10;53.70
5901;DHT22;2976;49.764;9.796;2023-06-04T05:47:12;20.00;53.40
5901;DHT22;2976;49.764;9.796;2023-06-04T05:49:37;19.60;53.60
5901;DHT22;2976;49.764;9.796;2023-06-04T05:52:03;19.30;54.60
5901;DHT22;2976;49.764;9.796;2023-06-04T05:54:29;19.90;54.80
5901;DHT22;2976;49.764;9.796;2023-06-04T05:56:55;19.80;53.90
5901;DHT22;2976;49.764;9.796;2023-06-04T05:59:21;19.70;53.80
5901;DHT22;2976;49.764;9.796;2023-06-04T06:01:46;19.70;54.60
5901;DHT22;2976;49.764;9.796;2023-06-04T06:04:14;19.40;54.40
5901;DHT22;2976;49.764;9.796;2023-06-04T06:06:39;19.80;54.20
5901;DHT22;2976;49.764;9.796;2023-06-04T06:09:06;20.30;54.30
5901;DHT22;2976;49.764;9.796;2023-06-04T06:11:31;20.30;53.10
5901;DHT22;2976;49.764;9.796;2023-06-04T06:13:57;20.20;53.60
5901;DHT22;2976;49.764;9.796;2023-06-04T06:16:22;20.40;52.80
5901;DHT22;2976;49.764;9.796;2023-06-04T06:18:48;20.50;52.90
5901;DHT22;2976;49.764;9.796;2023-06-04T06:21:14;21.20;52.70
5901;DHT22;2976;49.764;9.796;2023-06-04T06:23:39;21.30;51.80
5901;DHT22;2976;49.764;9.796;2023-06-04T06:26:05;20.90;51.90
5901;DHT22;2976;49.764;9.796;2023-06-04T06:28:33;20.40;53.20
5901;DHT22;2976;49.764;9.796;2023-06-04T06:30:59;20.10;53.30
5901;DHT22;2976;49.764;9.796;2023-06-04T06:33:25;20.00;53.20
5901;DHT22;2976;49.764;9.796;2023-06-04T06:35:51;20.60;52.70
5901;DHT22;2976;49.764;9.796;2023-06-04T06:38:17;20.80;54.10
5901;DHT22;2976;49.764;9.796;2023-06-04T06:40:42;21.50;52.40
5901;DHT22;2976;49.764;9.796;2023-06-04T06:43:08;22.20;52.40
5901;DHT22;2976;49.764;9.796;2023-06-04T06:45:34;22.60;51.20
5901;DHT22;2976;49.764;9.796;2023-06-04T06:47:59;23.20;51.50
5901;DHT22;2976;49.764;9.796;2023-06-04T06:50:25;23.00;49.70
5901;DHT22;2976;49.764;9.796;2023-06-04T06:52:50;22.60;51.00
5901;DHT22;2976;49.764;9.796;2023-06-04T06:55:16;22.20;50.60
5901;DHT22;2976;49.764;9.796;2023-06-04T06:57:43;22.30;49.90
5901;DHT22;2976;49.764;9.796;2023-06-04T07:00:09;21.90;49.70
5901;DHT22;2976;49.764;9.796;2023-06-04T07:02:35;22.00;50.80
5901;DHT22;2976;49.764;9.796;2023-06-04T07:05:00;22.60;49.70
5901;DHT22;2976;49.764;9.796;2023-06-04T07:07:26;23.10;49.90
5901;DHT22;2976;49.764;9.796;2023-06-04T07:09:52;22.80;48.40
5901;DHT22;2976;49.764;9.796;2023-06-04T07:12:17;22.40;48.60
5901;DHT22;2976;49.764;9.796;2023-06-04T07:14:43;22.40;49.20
5901;DHT22;2976;49.764;9.796;2023-06-04T07:17:09;22.40;49.60
5901;DHT22;2976;49.764;9.796;2023-06-04T07:19:34;21.90;49.20
5901;DHT22;2976;49.764;9.796;2023-06-04T07:22:00;21.20;50.90
5901;DHT22;2976;49.764;9.796;2023-06-04T07:24:25;20.90;52.10
5901;DHT22;2976;49.764;9.796;2023-06-04T07:26:52;21.30;50.90
5901;DHT22;2976;49.764;9.796;2023-06-04T07:29:17;21.40;51.50
5901;DHT22;2976;49.764;9.796;2023-06-04T07:31:43;21.70;51.70
5901;DHT22;2976;49.764;9.796;2023-06-04T07:34:09;21.70;51.20
5901;DHT22;2976;49.764;9.796;2023-06-04T07:36:34;21.50;50.90
5901;DHT22;2976;49.764;9.796;2023-06-04T07:39:00;21.40;51.20
5901;DHT22;2976;49.764;9.796;2023-06-04T07:41:25;21.30;52.20
5901;DHT22;2976;49.764;9.796;2023-06-04T07:43:51;21.10;52.70
5901;DHT22;2976;49.764;9.796;2023-06-04T07:46:17;21.10;52.80
5901;DHT22;2976;49.764;9.796;2023-06-04T07:48:44;20.60;53.00
5901;DHT22;2976;49.764;9.796;2023-06-04T07:51:10;19.80;54.10
5901;DHT22;2976;49.764;9.796;2023-06-04T07:53:36;20.20;55.80
5901;DHT22;2976;49.764;9.796;2023-06-04T07:56:03;21.00;53.80
5901;DHT22;2976;49.764;9.796;2023-06-04T07:58:29;21.60;52.50
5901;DHT22;2976;49.764;9.796;2023-06-04T08:00:55;22.10;53.10
5901;DHT22;2976;49.764;9.796;2023-06-04T08:03:21;22.90;52.40
5901;DHT22;2976;49.764;9.796;2023-06-04T08:05:47;23.30;50.70
5901;DHT22;2976;49.764;9.796;2023-06-04T08:08:13;23.80;50.50
5901;DHT22;2976;49.764;9.796;2023-06-04T08:10:41;23.60;50.20
5901;DHT22;2976;49.764;9.796;2023-06-04T08:13:07;22.90;51.50
5901;DHT22;2976;49.764;9.796;2023-06-04T08:15:34;23.20;51.00
5901;DHT22;2976;49.764;9.796;2023-06-04T08:17:59;22.80;50.90
5901;DHT22;2976;49.764;9.796;2023-06-04T08:20:25;22.50;50.90
5901;DHT22;2976;49.764;9.796;2023-06-04T08:22:51;22.90;50.40
5901;DHT22;2976;49.764;9.796;2023-06-04T08:25:16;22.60;50.50
5901;DHT22;2976;49.764;9.796;2023-06-04T08:27:42;22.60;51.00
5901;DHT22;2976;49.764;9.796;2023-06-04T08:30:09;22.90;51.30
5901;DHT22;2976;49.764;9.796;2023-06-04T08:32:34;23.00;52.00
5901;DHT22;2976;49.764;9.796;2023-06-04T08:35:00;23.10;50.50
5901;DHT22;2976;49.764;9.796;2023-06-04T08:37:26;23.10;51.20
5901;DHT22;2976;49.764;9.796;2023-06-04T08:39:51;23.20;51.10
5901;DHT22;2976;49.764;9.796;2023-06-04T08:42:30;22.80;51.30
5901;DHT22;2976;49.764;9.796;2023-06-04T08:44:57;22.60;51.70
5901;DHT22;2976;49.764;9.796;2023-06-04T08:47:24;22.10;51.60
5901;DHT22;2976;49.764;9.796;2023-06-04T08:49:52;22.30;52.00
5901;DHT22;2976;49.764;9.796;2023-06-04T08:52:18;22.70;50.60
5901;DHT22;2976;49.764;9.796;2023-06-04T08:54:50;22.80;52.00
5901;DHT22;2976;49.764;9.796;2023-06-04T08:57:19;22.90;50.80
5901;DHT22;2976;49.764;9.796;2023-06-04T08:59:48;22.90;48.60
5901;DHT22;2976;49.764;9.796;2023-06-04T09:02:15;22.70;49.30
5901;DHT22;2976;49.764;9.796;2023-06-04T09:04:44;22.70;50.70
5901;DHT22;2976;49.764;9.796;2023-06-04T09:07:13;23.20;49.20
5901;DHT22;2976;49.764;9.796;2023-06-04T09:09:40;23.60;49.50
5901;DHT22;2976;49.764;9.796;2023-06-04T09:12:13;24.10;48.80
5901;DHT22;2976;49.764;9.796;2023-06-04T09:14:40;24.00;48.30
5901;DHT22;2976;49.764;9.796;2023-06-04T09:17:06;23.90;47.40
5901;DHT22;2976;49.764;9.796;2023-06-04T09:19:31;23.70;47.30
5901;DHT22;2976;49.764;9.796;2023-06-04T09:21:58;23.80;48.40
5901;DHT22;2976;49.764;9.796;2023-06-04T09:24:38;23.70;48.40
5901;DHT22;2976;49.764;9.796;2023-06-04T09:27:13;24.20;47.80
5901;DHT22;2976;49.764;9.796;2023-06-04T09:29:39;24.50;46.30
5901;DHT22;2976;49.764;9.796;2023-06-04T09:32:05;24.50;45.10
5901;DHT22;2976;49.764;9.796;2023-06-04T09:34:31;24.70;45.90
5901;DHT22;2976;49.764;9.796;2023-06-04T09:36:57;24.70;46.60
5901;DHT22;2976;49.764;9.796;2023-06-04T09:39:23;24.70;45.20
5901;DHT22;2976;49.764;9.796;2023-06-04T09:42:01;24.40;45.20
5901;DHT22;2976;49.764;9.796;2023-06-04T09:44:29;23.90;45.60
5901;DHT22;2976;49.764;9.796;2023-06-04T09:46:58;24.00;45.40
5901;DHT22;2976;49.764;9.796;2023-06-04T09:49:24;23.60;46.30
5901;DHT22;2976;49.764;9.796;2023-06-04T09:51:50;23.90;45.20
5901;DHT22;2976;49.764;9.796;2023-06-04T09:54:16;23.40;46.30
5901;DHT22;2976;49.764;9.796;2023-06-04T09:56:42;22.70;46.00
5901;DHT22;2976;49.764;9.796;2023-06-04T09:59:09;23.00;47.00
5901;DHT22;2976;49.764;9.796;2023-06-04T10:01:39;22.70;46.90
5901;DHT22;2976;49.764;9.796;2023-06-04T10:04:07;23.10;47.00
5901;DHT22;2976;49.764;9.796;2023-06-04T10:06:35;23.30;46.70
5901;DHT22;2976;49.764;9.796;2023-06-04T10:09:05;23.60;46.70
5901;DHT22;2976;49.764;9.796;2023-06-04T10:11:40;23.80;44.50
5901;DHT22;2976;49.764;9.796;2023-06-04T10:14:23;23.80;45.10
5901;DHT22;2976;49.764;9.796;2023-06-04T10:16:51;24.10;45.40
5901;DHT22;2976;49.764;9.796;2023-06-04T10:19:18;24.80;43.90
5901;DHT22;2976;49.764;9.796;2023-06-04T10:21:44;24.30;44.30
5901;DHT22;2976;49.764;9.796;2023-06-04T10:24:12;24.20;44.10
5901;DHT22;2976;49.764;9.796;2023-06-04T10:26:39;24.50;43.40
5901;DHT22;2976;49.764;9.796;2023-06-04T10:29:06;24.40;40.70
5901;DHT22;2976;49.764;9.796;2023-06-04T10:31:32;23.90;40.20
5901;DHT22;2976;49.764;9.796;2023-06-04T10:33:58;23.70;39.90
5901;DHT22;2976;49.764;9.796;2023-06-04T10:36:24;23.60;40.70
5901;DHT22;2976;49.764;9.796;2023-06-04T10:38:52;23.50;40.60
5901;DHT22;2976;49.764;9.796;2023-06-04T10:41:19;23.70;41.10
5901;DHT22;2976;49.764;9.796;2023-06-04T10:43:50;24.00;42.10
5901;DHT22;2976;49.764;9.796;2023-06-04T10:46:18;24.10;40.10
5901;DHT22;2976;49.764;9.796;2023-06-04T10:48:51;24.30;44.50
5901;DHT22;2976;49.764;9.796;2023-06-04T10:51:29;24.50;41.10
5901;DHT22;2976;49.764;9.796;2023-06-04T10:53:57;24.30;40.60
5901;DHT22;2976;49.764;9.796;2023-06-04T10:56:33;24.20;40.40
5901;DHT22;2976;49.764;9.796;2023-06-04T10:59:14;24.40;41.80
5901;DHT22;2976;49.764;9.796;2023-06-04T11:01:40;24.40;40.90
5901;DHT22;2976;49.764;9.796;2023-06-04T11:04:05;24.60;41.20
5901;DHT22;2976;49.764;9.796;2023-06-04T11:06:31;24.30;40.00
5901;DHT22;2976;49.764;9.796;2023-06-04T11:09:05;24.30;40.60
5901;DHT22;2976;49.764;9.796;2023-06-04T11:11:31;24.20;39.90
5901;DHT22;2976;49.764;9.796;2023-06-04T11:14:12;24.00;39.90
5901;DHT22;2976;49.764;9.796;2023-06-04T11:16:38;24.30;39.60
5901;DHT22;2976;49.764;9.796;2023-06-04T11:19:04;24.40;38.50
5901;DHT22;2976;49.764;9.796;2023-06-04T11:21:30;24.10;38.40
5901;DHT22;2976;49.764;9.796;2023-06-04T11:23:59;24.20;38.80
5901;DHT22;2976;49.764;9.796;2023-06-04T11:28:58;24.10;39.10
5901;DHT22;2976;49.764;9.796;2023-06-04T11:31:23;23.80;38.60
5901;DHT22;2976;49.764;9.796;2023-06-04T11:33:49;23.90;38.20
5901;DHT22;2976;49.764;9.796;2023-06-04T11:36:28;24.30;40.00
5901;DHT22;2976;49.764;9.796;2023-06-04T11:39:00;24.60;39.10
5901;DHT22;2976;49.764;9.796;2023-06-04T11:41:35;24.30;39.40
5901;DHT22;2976;49.764;9.796;2023-06-04T11:44:04;24.20;37.40
5901;DHT22;2976;49.764;9.796;2023-06-04T11:46:34;24.40;39.20
5901;DHT22;2976;49.764;9.796;2023-06-04T11:49:02;24.50;38.40
5901;DHT22;2976;49.764;9.796;2023-06-04T11:51:28;24.60;36.90
5901;DHT22;2976;49.764;9.796;2023-06-04T11:53:54;24.60;38.50
5901;DHT22;2976;49.764;9.796;2023-06-04T11:56:20;25.00;40.00
5901;DHT22;2976;49.764;9.796;2023-06-04T11:58:46;24.30;38.30
5901;DHT22;2976;49.764;9.796;2023-06-04T12:01:12;24.00;38.40
5901;DHT22;2976;49.764;9.796;2023-06-04T12:03:42;23.80;39.00
5901;DHT22;2976;49.764;9.796;2023-06-04T12:06:18;24.20;38.70
5901;DHT22;2976;49.764;9.796;2023-06-04T12:13:55;24.50;37.90
5901;DHT22;2976;49.764;9.796;2023-06-04T12:16:21;23.90;40.00
5901;DHT22;2976;49.764;9.796;2023-06-04T12:18:47;23.80;40.40
5901;DHT22;2976;49.764;9.796;2023-06-04T12:21:32;24.20;39.60
5901;DHT22;2976;49.764;9.796;2023-06-04T12:24:11;24.10;38.10
5901;DHT22;2976;49.764;9.796;2023-06-04T12:26:37;24.00;37.80
5901;DHT22;2976;49.764;9.796;2023-06-04T12:29:10;24.00;38.70
5901;DHT22;2976;49.764;9.796;2023-06-04T12:31:37;24.00;39.20
5901;DHT22;2976;49.764;9.796;2023-06-04T12:34:02;24.30;37.80
5901;DHT22;2976;49.764;9.796;2023-06-04T12:36:28;24.30;36.60
5901;DHT22;2976;49.764;9.796;2023-06-04T12:38:59;24.30;35.60
5901;DHT22;2976;49.764;9.796;2023-06-04T12:41:26;24.30;36.50
5901;DHT22;2976;49.764;9.796;2023-06-04T12:43:52;24.40;37.40
5901;DHT22;2976;49.764;9.796;2023-06-04T12:46:18;24.60;35.70
5901;DHT22;2976;49.764;9.796;2023-06-04T12:48:44;24.50;37.00
5901;DHT22;2976;49.764;9.796;2023-06-04T12:51:10;24.40;37.00
5901;DHT22;2976;49.764;9.796;2023-06-04T12:53:43;24.30;35.70
5901;DHT22;2976;49.764;9.796;2023-06-04T12:56:09;23.80;36.50
5901;DHT22;2976;49.764;9.796;2023-06-04T12:58:35;23.80;36.40
5901;DHT22;2976;49.764;9.796;2023-06-04T13:01:01;23.90;35.80
5901;DHT22;2976;49.764;9.796;2023-06-04T13:03:27;24.10;35.70
5901;DHT22;2976;49.764;9.796;2023-06-04T13:05:53;24.30;35.80
5901;DHT22;2976;49.764;9.796;2023-06-04T13:08:22;24.30;34.70
5901;DHT22;2976;49.764;9.796;2023-06-04T13:10:49;24.20;34.90
5901;DHT22;2976;49.764;9.796;2023-06-04T13:13:16;24.30;34.70
5901;DHT22;2976;49.764;9.796;2023-06-04T13:15:44;24.00;34.20
5901;DHT22;2976;49.764;9.796;2023-06-04T13:18:10;24.20;35.40
5901;DHT22;2976;49.764;9.796;2023-06-04T13:20:36;24.00;36.20
5901;DHT22;2976;49.764;9.796;2023-06-04T13:23:02;24.10;35.80
5901;DHT22;2976;49.764;9.796;2023-06-04T13:25:28;24.00;35.80
5901;DHT22;2976;49.764;9.796;2023-06-04T13:27:55;24.10;35.60
5901;DHT22;2976;49.764;9.796;2023-06-04T13:30:21;24.20;36.20
5901;DHT22;2976;49.764;9.796;2023-06-04T13:32:48;24.10;35.10
5901;DHT22;2976;49.764;9.796;2023-06-04T13:35:13;24.00;36.20
5901;DHT22;2976;49.764;9.796;2023-06-04T13:37:39;24.30;35.20
5901;DHT22;2976;49.764;9.796;2023-06-04T13:40:05;24.50;35.90
5901;DHT22;2976;49.764;9.796;2023-06-04T13:42:31;24.40;36.10
5901;DHT22;2976;49.764;9.796;2023-06-04T13:44:56;24.20;37.60
5901;DHT22;2976;49.764;9.796;2023-06-04T13:47:23;24.20;37.30
5901;DHT22;2976;49.764;9.796;2023-06-04T13:49:48;24.20;36.80
5901;DHT22;2976;49.764;9.796;2023-06-04T13:52:14;24.20;36.50
5901;DHT22;2976;49.764;9.796;2023-06-04T13:54:40;24.40;35.70
5901;DHT22;2976;49.764;9.796;2023-06-04T13:57:06;24.50;36.50
5901;DHT22;2976;49.764;9.796;2023-06-04T13:59:32;24.40;37.10
5901;DHT22;2976;49.764;9.796;2023-06-04T14:01:59;24.40;37.30
5901;DHT22;2976;49.764;9.796;2023-06-04T14:04:24;24.40;35.30
5901;DHT22;2976;49.764;9.796;2023-06-04T14:06:50;24.30;34.90
5901;DHT22;2976;49.764;9.796;2023-06-04T14:09:16;24.10;33.90
5901;DHT22;2976;49.764;9.796;2023-06-04T14:11:41;24.20;35.00
5901;DHT22;2976;49.764;9.796;2023-06-04T14:14:07;24.30;34.30
5901;DHT22;2976;49.764;9.796;2023-06-04T14:16:33;24.30;37.10
5901;DHT22;2976;49.764;9.796;2023-06-04T14:18:59;24.10;37.00
5901;DHT22;2976;49.764;9.796;2023-06-04T14:21:26;24.10;36.90
5901;DHT22;2976;49.764;9.796;2023-06-04T14:23:51;23.90;37.50
5901;DHT22;2976;49.764;9.796;2023-06-04T14:26:17;24.00;37.70
5901;DHT22;2976;49.764;9.796;2023-06-04T14:28:43;24.10;37.10
5901;DHT22;2976;49.764;9.796;2023-06-04T14:31:09;24.10;37.70
5901;DHT22;2976;49.764;9.796;2023-06-04T14:33:35;24.20;37.70
5901;DHT22;2976;49.764;9.796;2023-06-04T14:36:03;24.10;38.40
5901;DHT22;2976;49.764;9.796;2023-06-04T14:38:29;24.00;37.80
5901;DHT22;2976;49.764;9.796;2023-06-04T14:40:55;24.00;37.90
5901;DHT22;2976;49.764;9.796;2023-06-04T14:43:22;24.20;38.40
5901;DHT22;2976;49.764;9.796;2023-06-04T14:45:48;24.30;38.00
5901;DHT22;2976;49.764;9.796;2023-06-04T14:48:14;24.40;37.60
5901;DHT22;2976;49.764;9.796;2023-06-04T14:50:39;24.40;38.30
5901;DHT22;2976;49.764;9.796;2023-06-04T14:53:05;24.40;37.60
5901;DHT22;2976;49.764;9.796;2023-06-04T14:55:34;24.30;38.70
5901;DHT22;2976;49.764;9.796;2023-06-04T14:58:00;24.20;37.00
5901;DHT22;2976;49.764;9.796;2023-06-04T15:00:26;24.20;37.50
5901;DHT22;2976;49.764;9.796;2023-06-04T15:02:52;24.50;37.30
5901;DHT22;2976;49.764;9.796;2023-06-04T15:05:17;24.50;36.90
5901;DHT22;2976;49.764;9.796;2023-06-04T15:07:43;24.60;36.70
5901;DHT22;2976;49.764;9.796;2023-06-04T15:10:09;24.40;37.40
5901;DHT22;2976;49.764;9.796;2023-06-04T15:12:35;24.50;38.60
5901;DHT22;2976;49.764;9.796;2023-06-04T15:15:08;24.40;38.70
5901;DHT22;2976;49.764;9.796;2023-06-04T15:17:34;24.50;39.70
5901;DHT22;2976;49.764;9.796;2023-06-04T15:20:01;24.50;39.50
5901;DHT22;2976;49.764;9.796;2023-06-04T15:22:27;24.50;39.50
5901;DHT22;2976;49.764;9.796;2023-06-04T15:24:53;24.50;39.20
5901;DHT22;2976;49.764;9.796;2023-06-04T15:27:19;24.60;38.10
5901;DHT22;2976;49.764;9.796;2023-06-04T15:29:44;24.40;36.90
5901;DHT22;2976;49.764;9.796;2023-06-04T15:32:11;24.30;37.60
5901;DHT22;2976;49.764;9.796;2023-06-04T15:34:36;24.30;39.30
5901;DHT22;2976;49.764;9.796;2023-06-04T15:37:02;24.40;37.80
5901;DHT22;2976;49.764;9.796;2023-06-04T15:39:28;24.10;37.10
5901;DHT22;2976;49.764;9.796;2023-06-04T15:41:53;24.20;37.70
5901;DHT22;2976;49.764;9.796;2023-06-04T15:44:19;24.20;35.80
5901;DHT22;2976;49.764;9.796;2023-06-04T15:46:45;23.90;37.50
5901;DHT22;2976;49.764;9.796;2023-06-04T15:49:10;24.10;38.00
5901;DHT22;2976;49.764;9.796;2023-06-04T15:51:36;24.20;36.80
5901;DHT22;2976;49.764;9.796;2023-06-04T15:54:02;24.10;36.00
5901;DHT22;2976;49.764;9.796;2023-06-04T15:56:28;24.00;36.40
5901;DHT22;2976;49.764;9.796;2023-06-04T15:58:54;24.10;36.40
5901;DHT22;2976;49.764;9.796;2023-06-04T16:01:20;24.10;35.50
5901;DHT22;2976;49.764;9.796;2023-06-04T16:03:46;24.30;35.30
5901;DHT22;2976;49.764;9.796;2023-06-04T16:06:11;24.30;34.50
5901;DHT22;2976;49.764;9.796;2023-06-04T16:08:37;24.40;35.30
5901;DHT22;2976;49.764;9.796;2023-06-04T16:11:03;24.20;34.40
5901;DHT22;2976;49.764;9.796;2023-06-04T16:13:29;24.30;34.00